sensor_id;sensor_type;location;lat;lon;timestamp;temperature;humidity
19968;DHT22;10145;49.152;9.282;2023-02-16T00:01:22;-1.50;99.90
19968;DHT22;10145;49.152;9.282;2023-02-16T00:03:50;-1.60;99.90
19968;DHT22;10145;49.152;9.282;2023-02-16T00:06:16;-1.50;99.90
19968;DHT22;10145;49.152;9.282;2023-02-16T00:08:46;-1.50;99.90
19968;DHT22;10145;49.152;9.282;2023-02-16T00:11:16;-1.60;99.90
19968;DHT22;10145;49.152;9.282;2023-02-16T00:14:02;-1.70;99.90
19968;DHT22;10145;49.152;9.282;2023-02-16T00:16:28;-1.70;99.90
19968;DHT22;10145;49.152;9.282;2023-02-16T00:18:53;-1.70;99.90
19968;DHT22;10145;49.152;9.282;2023-02-16T00:21:19;-1.80;99.90
19968;DHT22;10145;49.152;9.282;2023-02-16T00:23:45;-1.80;99.90
19968;DHT22;10145;49.152;9.282;2023-02-16T00:26:19;-1.70;99.90
19968;DHT22;10145;49.152;9.282;2023-02-16T00:28:46;-1.80;99.90
19968;DHT22;10145;49.152;9.282;2023-02-16T00:31:20;-1.80;99.90
19968;DHT22;10145;49.152;9.282;2023-02-16T00:33:47;-1.70;99.90
19968;DHT22;10145;49.152;9.282;2023-02-16T00:36:13;-1.70;99.90
19968;DHT22;10145;49.152;9.282;2023-02-16T00:38:38;-1.70;99.90
19968;DHT22;10145;49.152;9.282;2023-02-16T00:41:04;-1.80;99.90
19968;DHT22;10145;49.152;9.282;2023-02-16T00:43:50;-1.80;99.90
19968;DHT22;10145;49.152;9.282;2023-02-16T00:46:19;-1.80;99.90
19968;DHT22;10145;49.152;9.282;2023-02-16T00:48:44;-1.80;99.90
19968;DHT22;10145;49.152;9.282;2023-02-16T00:51:10;-1.90;99.90
19968;DHT22;10145;49.152;9.282;2023-02-16T00:53:35;-1.90;99.90
19968;DHT22;10145;49.152;9.282;2023-02-16T00:56:01;-1.90;99.90
19968;DHT22;10145;49.152;9.282;2023-02-16T00:58:29;-1.90;99.90
19968;DHT22;10145;49.152;9.282;2023-02-16T01:01:02;-2.00;99.90
19968;DHT22;10145;49.152;9.282;2023-02-16T01:03:30;-2.00;99.90
19968;DHT22;10145;49.152;9.282;2023-02-16T01:05:56;-1.90;99.90
19968;DHT22;10145;49.152;9.282;2023-02-16T01:08:47;-1.90;99.90
19968;DHT22;10145;49.152;9.282;2023-02-16T01:11:31;-1.90;99.90
19968;DHT22;10145;49.152;9.282;2023-02-16T01:13:57;-1.90;99.90
19968;DHT22;10145;49.152;9.282;2023-02-16T01:16:45;-1.90;99.90
19968;DHT22;10145;49.152;9.282;2023-02-16T01:19:11;-2.00;99.90
19968;DHT22;10145;49.152;9.282;2023-02-16T01:21:36;-1.90;99.90
19968;DHT22;10145;49.152;9.282;2023-02-16T01:24:02;-2.00;99.90
19968;DHT22;10145;49.152;9.282;2023-02-16T01:26:28;-1.90;99.90
19968;DHT22;10145;49.152;9.282;2023-02-16T01:28:54;-2.00;99.90
19968;DHT22;10145;49.152;9.282;2023-02-16T01:31:20;-1.90;99.90
19968;DHT22;10145;49.152;9.282;2023-02-16T01:33:45;-2.00;99.90
19968;DHT22;10145;49.152;9.282;2023-02-16T01:36:27;-2.00;99.90
19968;DHT22;10145;49.152;9.282;2023-02-16T01:38:55;-2.10;99.90
19968;DHT22;10145;49.152;9.282;2023-02-16T01:41:32;-2.10;99.90
19968;DHT22;10145;49.152;9.282;2023-02-16T01:44:10;-2.10;99.90
19968;DHT22;10145;49.152;9.282;2023-02-16T01:47:02;-2.10;99.90
19968;DHT22;10145;49.152;9.282;2023-02-16T01:49:29;-2.10;99.90
19968;DHT22;10145;49.152;9.282;2023-02-16T01:52:24;-2.20;99.90
19968;DHT22;10145;49.152;9.282;2023-02-16T01:57:42;-2.30;99.90
19968;DHT22;10145;49.152;9.282;2023-02-16T02:00:15;-2.30;99.90
19968;DHT22;10145;49.152;9.282;2023-02-16T02:02:53;-2.30;99.90
19968;DHT22;10145;49.152;9.282;2023-02-16T02:05:40;-2.20;99.90
19968;DHT22;10145;49.152;9.282;2023-02-16T02:08:13;-2.20;99.90
19968;DHT22;10145;49.152;9.282;2023-02-16T02:11:14;-2.20;99.90
19968;DHT22;10145;49.152;9.282;2023-02-16T02:14:14;-2.30;99.90
19968;DHT22;10145;49.152;9.282;2023-02-16T02:16:40;-2.30;99.90
19968;DHT22;10145;49.152;9.282;2023-02-16T02:19:05;-2.30;99.90
19968;DHT22;10145;49.152;9.282;2023-02-16T02:21:54;-2.40;99.90
19968;DHT22;10145;49.152;9.282;2023-02-16T02:27:46;-2.50;99.90
19968;DHT22;10145;49.152;9.282;2023-02-16T02:30:34;-2.50;99.90
19968;DHT22;10145;49.152;9.282;2023-02-16T02:36:15;-2.50;99.90
19968;DHT22;10145;49.152;9.282;2023-02-16T02:39:12;-2.50;99.90
19968;DHT22;10145;49.152;9.282;2023-02-16T02:41:52;-2.50;99.90
19968;DHT22;10145;49.152;9.282;2023-02-16T02:45:51;-2.50;99.90
19968;DHT22;10145;49.152;9.282;2023-02-16T02:47:46;-2.50;99.90
19968;DHT22;10145;49.152;9.282;2023-02-16T02:50:38;-2.60;99.90
19968;DHT22;10145;49.152;9.282;2023-02-16T02:53:09;-2.60;99.90
19968;DHT22;10145;49.152;9.282;2023-02-16T02:55:39;-2.50;99.90
19968;DHT22;10145;49.152;9.282;2023-02-16T02:58:27;-2.50;99.90
19968;DHT22;10145;49.152;9.282;2023-02-16T03:01:13;-2.50;99.90
19968;DHT22;10145;49.152;9.282;2023-02-16T03:03:50;-2.50;99.90
19968;DHT22;10145;49.152;9.282;2023-02-16T03:06:33;-2.40;99.90
19968;DHT22;10145;49.152;9.282;2023-02-16T03:09:07;-2.30;99.90
19968;DHT22;10145;49.152;9.282;2023-02-16T03:11:36;-2.20;99.90
19968;DHT22;10145;49.152;9.282;2023-02-16T03:16:56;-2.10;99.90
19968;DHT22;10145;49.152;9.282;2023-02-16T03:19:45;-2.20;99.90
19968;DHT22;10145;49.152;9.282;2023-02-16T03:22:31;-2.30;99.90
19968;DHT22;10145;49.152;9.282;2023-02-16T03:25:16;-2.20;99.90
19968;DHT22;10145;49.152;9.282;2023-02-16T03:28:03;-2.20;99.90
19968;DHT22;10145;49.152;9.282;2023-02-16T03:30:50;-2.20;99.90
19968;DHT22;10145;49.152;9.282;2023-02-16T03:33:17;-2.30;99.90
19968;DHT22;10145;49.152;9.282;2023-02-16T03:35:44;-2.30;99.90
19968;DHT22;10145;49.152;9.282;2023-02-16T03:38:10;-2.30;99.90
19968;DHT22;10145;49.152;9.282;2023-02-16T03:40:36;-2.30;99.90
19968;DHT22;10145;49.152;9.282;2023-02-16T03:43:06;-2.30;99.90
19968;DHT22;10145;49.152;9.282;2023-02-16T03:45:35;-2.30;99.90
19968;DHT22;10145;49.152;9.282;2023-02-16T03:48:02;-2.30;99.90
19968;DHT22;10145;49.152;9.282;2023-02-16T03:50:28;-2.30;99.90
19968;DHT22;10145;49.152;9.282;2023-02-16T03:52:54;-2.40;99.90
19968;DHT22;10145;49.152;9.282;2023-02-16T03:55:40;-2.30;99.90
19968;DHT22;10145;49.152;9.282;2023-02-16T03:58:09;-2.40;99.90
19968;DHT22;10145;49.152;9.282;2023-02-16T04:00:35;-2.30;99.90
19968;DHT22;10145;49.152;9.282;2023-02-16T04:03:01;-2.30;99.90
19968;DHT22;10145;49.152;9.282;2023-02-16T04:05:27;-2.30;99.90
19968;DHT22;10145;49.152;9.282;2023-02-16T04:07:52;-2.30;99.90
19968;DHT22;10145;49.152;9.282;2023-02-16T04:10:19;-2.30;99.90
19968;DHT22;10145;49.152;9.282;2023-02-16T04:12:44;-2.20;99.90
19968;DHT22;10145;49.152;9.282;2023-02-16T04:15:16;-2.30;99.90
19968;DHT22;10145;49.152;9.282;2023-02-16T04:17:42;-2.30;99.90
19968;DHT22;10145;49.152;9.282;2023-02-16T04:20:11;-2.30;99.90
19968;DHT22;10145;49.152;9.282;2023-02-16T04:22:36;-2.30;99.90
19968;DHT22;10145;49.152;9.282;2023-02-16T04:25:02;-2.30;99.90
19968;DHT22;10145;49.152;9.282;2023-02-16T04:27:28;-2.30;99.90
19968;DHT22;10145;49.152;9.282;2023-02-16T04:29:53;-2.40;99.90
19968;DHT22;10145;49.152;9.282;2023-02-16T04:32:19;-2.40;99.90
19968;DHT22;10145;49.152;9.282;2023-02-16T04:34:44;-2.40;99.90
19968;DHT22;10145;49.152;9.282;2023-02-16T04:37:10;-2.50;99.90
19968;DHT22;10145;49.152;9.282;2023-02-16T04:39:36;-2.40;99.90
19968;DHT22;10145;49.152;9.282;2023-02-16T04:42:01;-2.30;99.90
19968;DHT22;10145;49.152;9.282;2023-02-16T04:44:27;-2.20;99.90
19968;DHT22;10145;49.152;9.282;2023-02-16T04:46:53;-2.30;99.90
19968;DHT22;10145;49.152;9.282;2023-02-16T04:49:18;-2.30;99.90
19968;DHT22;10145;49.152;9.282;2023-02-16T04:51:44;-2.30;99.90
19968;DHT22;10145;49.152;9.282;2023-02-16T04:54:09;-2.30;99.90
19968;DHT22;10145;49.152;9.282;2023-02-16T04:56:35;-2.20;99.90
19968;DHT22;10145;49.152;9.282;2023-02-16T04:59:00;-2.30;99.90
19968;DHT22;10145;49.152;9.282;2023-02-16T05:01:27;-2.30;99.90
19968;DHT22;10145;49.152;9.282;2023-02-16T05:03:53;-2.30;99.90
19968;DHT22;10145;49.152;9.282;2023-02-16T05:06:19;-2.30;99.90
19968;DHT22;10145;49.152;9.282;2023-02-16T05:08:44;-2.30;99.90
19968;DHT22;10145;49.152;9.282;2023-02-16T05:11:11;-2.30;99.90
19968;DHT22;10145;49.152;9.282;2023-02-16T05:13:56;-2.40;99.90
19968;DHT22;10145;49.152;9.282;2023-02-16T05:16:41;-2.30;99.90
19968;DHT22;10145;49.152;9.282;2023-02-16T05:19:07;-2.30;99.90
19968;DHT22;10145;49.152;9.282;2023-02-16T05:21:32;-2.30;99.90
19968;DHT22;10145;49.152;9.282;2023-02-16T05:24:01;-2.20;99.90
19968;DHT22;10145;49.152;9.282;2023-02-16T05:26:27;-2.20;99.90
19968;DHT22;10145;49.152;9.282;2023-02-16T05:28:53;-2.20;99.90
19968;DHT22;10145;49.152;9.282;2023-02-16T05:31:19;-2.20;99.90
19968;DHT22;10145;49.152;9.282;2023-02-16T05:33:44;-2.40;99.90
19968;DHT22;10145;49.152;9.282;2023-02-16T05:36:10;-2.40;99.90
19968;DHT22;10145;49.152;9.282;2023-02-16T05:38:35;-2.50;99.90
19968;DHT22;10145;49.152;9.282;2023-02-16T05:41:01;-2.50;99.90
19968;DHT22;10145;49.152;9.282;2023-02-16T05:43:27;-2.50;99.90
19968;DHT22;10145;49.152;9.282;2023-02-16T05:45:52;-2.60;99.90
19968;DHT22;10145;49.152;9.282;2023-02-16T05:48:18;-2.60;99.90
19968;DHT22;10145;49.152;9.282;2023-02-16T05:50:43;-2.60;99.90
19968;DHT22;10145;49.152;9.282;2023-02-16T05:53:09;-2.50;99.90
19968;DHT22;10145;49.152;9.282;2023-02-16T05:55:34;-2.50;99.90
19968;DHT22;10145;49.152;9.282;2023-02-16T05:58:00;-2.50;99.90
19968;DHT22;10145;49.152;9.282;2023-02-16T06:00:26;-2.50;99.90
19968;DHT22;10145;49.152;9.282;2023-02-16T06:02:52;-2.50;99.90
19968;DHT22;10145;49.152;9.282;2023-02-16T06:05:17;-2.50;99.90
19968;DHT22;10145;49.152;9.282;2023-02-16T06:07:43;-2.50;99.90
19968;DHT22;10145;49.152;9.282;2023-02-16T06:10:09;-2.60;99.90
19968;DHT22;10145;49.152;9.282;2023-02-16T06:12:35;-2.60;99.90
19968;DHT22;10145;49.152;9.282;2023-02-16T06:15:01;-2.50;99.90
19968;DHT22;10145;49.152;9.282;2023-02-16T06:17:26;-2.50;99.90
19968;DHT22;10145;49.152;9.282;2023-02-16T06:19:53;-2.50;99.90
19968;DHT22;10145;49.152;9.282;2023-02-16T06:22:21;-2.50;99.90
19968;DHT22;10145;49.152;9.282;2023-02-16T06:24:46;-2.40;99.90
19968;DHT22;10145;49.152;9.282;2023-02-16T06:27:12;-2.40;99.90
19968;DHT22;10145;49.152;9.282;2023-02-16T06:29:38;-2.40;99.90
19968;DHT22;10145;49.152;9.282;2023-02-16T06:32:03;-2.40;99.90
19968;DHT22;10145;49.152;9.282;2023-02-16T06:34:29;-2.30;99.90
19968;DHT22;10145;49.152;9.282;2023-02-16T06:36:54;-2.30;99.90
19968;DHT22;10145;49.152;9.282;2023-02-16T06:39:21;-2.30;99.90
19968;DHT22;10145;49.152;9.282;2023-02-16T06:41:46;-2.30;99.90
19968;DHT22;10145;49.152;9.282;2023-02-16T06:44:15;-2.40;99.90
19968;DHT22;10145;49.152;9.282;2023-02-16T06:46:42;-2.40;99.90
19968;DHT22;10145;49.152;9.282;2023-02-16T06:49:13;-2.40;99.90
19968;DHT22;10145;49.152;9.282;2023-02-16T06:51:38;-2.40;99.90
19968;DHT22;10145;49.152;9.282;2023-02-16T06:54:04;-2.30;99.90
19968;DHT22;10145;49.152;9.282;2023-02-16T06:56:29;-2.30;99.90
19968;DHT22;10145;49.152;9.282;2023-02-16T06:58:55;-2.30;99.90
19968;DHT22;10145;49.152;9.282;2023-02-16T07:01:21;-2.30;99.90
19968;DHT22;10145;49.152;9.282;2023-02-16T07:03:51;-2.30;99.90
19968;DHT22;10145;49.152;9.282;2023-02-16T07:06:18;-2.40;99.90
19968;DHT22;10145;49.152;9.282;2023-02-16T07:08:44;-2.30;99.90
19968;DHT22;10145;49.152;9.282;2023-02-16T07:11:10;-2.30;99.90
19968;DHT22;10145;49.152;9.282;2023-02-16T07:13:35;-2.30;99.90
19968;DHT22;10145;49.152;9.282;2023-02-16T07:16:05;-2.20;99.90
19968;DHT22;10145;49.152;9.282;2023-02-16T07:18:31;-2.10;99.90
19968;DHT22;10145;49.152;9.282;2023-02-16T07:21:00;-2.00;99.90
19968;DHT22;10145;49.152;9.282;2023-02-16T07:23:25;-2.00;99.90
19968;DHT22;10145;49.152;9.282;2023-02-16T07:25:51;-2.00;99.90
19968;DHT22;10145;49.152;9.282;2023-02-16T07:28:16;-2.10;99.90
19968;DHT22;10145;49.152;9.282;2023-02-16T07:30:42;-2.00;99.90
19968;DHT22;10145;49.152;9.282;2023-02-16T07:33:09;-2.00;99.90
19968;DHT22;10145;49.152;9.282;2023-02-16T07:35:35;-1.90;99.90
19968;DHT22;10145;49.152;9.282;2023-02-16T07:38:01;-1.80;99.90
19968;DHT22;10145;49.152;9.282;2023-02-16T07:40:30;-1.70;99.90
19968;DHT22;10145;49.152;9.282;2023-02-16T07:43:00;-1.70;99.90
19968;DHT22;10145;49.152;9.282;2023-02-16T07:45:27;-1.70;99.90
19968;DHT22;10145;49.152;9.282;2023-02-16T07:47:53;-1.70;99.90
19968;DHT22;10145;49.152;9.282;2023-02-16T07:50:18;-1.60;99.90
19968;DHT22;10145;49.152;9.282;2023-02-16T07:52:44;-1.60;99.90
19968;DHT22;10145;49.152;9.282;2023-02-16T07:55:10;-1.60;99.90
19968;DHT22;10145;49.152;9.282;2023-02-16T07:57:37;-1.60;99.90
19968;DHT22;10145;49.152;9.282;2023-02-16T08:00:07;-1.60;99.90
19968;DHT22;10145;49.152;9.282;2023-02-16T08:02:33;-1.50;99.90
19968;DHT22;10145;49.152;9.282;2023-02-16T08:04:59;-1.50;99.90
19968;DHT22;10145;49.152;9.282;2023-02-16T08:07:25;-1.40;99.90
19968;DHT22;10145;49.152;9.282;2023-02-16T08:09:51;-1.40;99.90
19968;DHT22;10145;49.152;9.282;2023-02-16T08:12:17;-1.40;99.90
19968;DHT22;10145;49.152;9.282;2023-02-16T08:14:44;-1.30;99.90
19968;DHT22;10145;49.152;9.282;2023-02-16T08:17:11;-1.20;99.90
19968;DHT22;10145;49.152;9.282;2023-02-16T08:19:38;-1.20;99.90
19968;DHT22;10145;49.152;9.282;2023-02-16T08:22:05;-1.10;99.90
19968;DHT22;10145;49.152;9.282;2023-02-16T08:24:31;-0.90;99.90
19968;DHT22;10145;49.152;9.282;2023-02-16T08:26:58;-0.90;99.90
19968;DHT22;10145;49.152;9.282;2023-02-16T08:29:24;-0.70;99.90
19968;DHT22;10145;49.152;9.282;2023-02-16T08:31:50;-0.70;99.90
19968;DHT22;10145;49.152;9.282;2023-02-16T08:34:18;-0.60;99.90
19968;DHT22;10145;49.152;9.282;2023-02-16T08:36:44;-0.50;99.90
19968;DHT22;10145;49.152;9.282;2023-02-16T08:39:16;-0.40;99.90
19968;DHT22;10145;49.152;9.282;2023-02-16T08:41:43;-0.30;99.90
19968;DHT22;10145;49.152;9.282;2023-02-16T08:44:10;-0.40;99.90
19968;DHT22;10145;49.152;9.282;2023-02-16T08:46:38;-0.40;99.90
19968;DHT22;10145;49.152;9.282;2023-02-16T08:49:06;-0.30;99.90
19968;DHT22;10145;49.152;9.282;2023-02-16T08:51:33;-0.10;99.90
19968;DHT22;10145;49.152;9.282;2023-02-16T08:54:01;-0.10;99.90
19968;DHT22;10145;49.152;9.282;2023-02-16T08:56:28;-0.10;99.90
19968;DHT22;10145;49.152;9.282;2023-02-16T08:58:58;-0.10;99.90
19968;DHT22;10145;49.152;9.282;2023-02-16T09:01:24;0.00;99.90
19968;DHT22;10145;49.152;9.282;2023-02-16T09:03:50;0.10;99.90
19968;DHT22;10145;49.152;9.282;2023-02-16T09:06:17;0.10;99.90
19968;DHT22;10145;49.152;9.282;2023-02-16T09:08:52;0.10;99.90
19968;DHT22;10145;49.152;9.282;2023-02-16T09:11:19;0.10;99.90
19968;DHT22;10145;49.152;9.282;2023-02-16T09:13:45;0.20;99.90
19968;DHT22;10145;49.152;9.282;2023-02-16T09:16:22;0.40;99.90
19968;DHT22;10145;49.152;9.282;2023-02-16T09:18:48;0.50;99.90
19968;DHT22;10145;49.152;9.282;2023-02-16T09:21:17;0.60;99.90
19968;DHT22;10145;49.152;9.282;2023-02-16T09:23:45;0.70;99.90
19968;DHT22;10145;49.152;9.282;2023-02-16T09:26:16;0.90;99.90
19968;DHT22;10145;49.152;9.282;2023-02-16T09:28:43;0.90;99.90
19968;DHT22;10145;49.152;9.282;2023-02-16T09:31:18;1.10;99.90
19968;DHT22;10145;49.152;9.282;2023-02-16T09:33:48;1.20;99.90
19968;DHT22;10145;49.152;9.282;2023-02-16T09:36:13;1.40;99.90
19968;DHT22;10145;49.152;9.282;2023-02-16T09:38:39;1.50;99.90
19968;DHT22;10145;49.152;9.282;2023-02-16T09:41:07;1.60;99.90
19968;DHT22;10145;49.152;9.282;2023-02-16T09:46:11;1.80;99.90
19968;DHT22;10145;49.152;9.282;2023-02-16T09:48:41;1.80;99.90
19968;DHT22;10145;49.152;9.282;2023-02-16T09:51:07;1.90;99.90
19968;DHT22;10145;49.152;9.282;2023-02-16T09:53:40;2.00;99.90
19968;DHT22;10145;49.152;9.282;2023-02-16T09:58:50;2.20;99.90
19968;DHT22;10145;49.152;9.282;2023-02-16T10:01:51;2.20;99.90
19968;DHT22;10145;49.152;9.282;2023-02-16T10:04:33;2.30;99.90
19968;DHT22;10145;49.152;9.282;2023-02-16T10:07:32;2.40;99.90
19968;DHT22;10145;49.152;9.282;2023-02-16T10:10:03;2.60;99.90
19968;DHT22;10145;49.152;9.282;2023-02-16T10:12:35;2.70;99.90
19968;DHT22;10145;49.152;9.282;2023-02-16T10:15:07;2.80;99.90
19968;DHT22;10145;49.152;9.282;2023-02-16T10:17:40;2.90;99.90
19968;DHT22;10145;49.152;9.282;2023-02-16T10:20:36;3.00;99.90
19968;DHT22;10145;49.152;9.282;2023-02-16T10:23:33;3.10;99.90
19968;DHT22;10145;49.152;9.282;2023-02-16T10:26:16;3.20;99.90
19968;DHT22;10145;49.152;9.282;2023-02-16T10:28:45;3.30;99.90
19968;DHT22;10145;49.152;9.282;2023-02-16T10:31:27;3.40;99.90
19968;DHT22;10145;49.152;9.282;2023-02-16T10:36:46;3.80;99.90
19968;DHT22;10145;49.152;9.282;2023-02-16T10:42:15;4.20;99.90
19968;DHT22;10145;49.152;9.282;2023-02-16T10:45:06;4.30;99.90
19968;DHT22;10145;49.152;9.282;2023-02-16T10:47:41;4.50;99.90
19968;DHT22;10145;49.152;9.282;2023-02-16T10:50:22;4.60;99.90
19968;DHT22;10145;49.152;9.282;2023-02-16T10:52:48;4.70;99.90
19968;DHT22;10145;49.152;9.282;2023-02-16T10:55:15;4.90;99.90
19968;DHT22;10145;49.152;9.282;2023-02-16T10:57:41;5.10;99.90
19968;DHT22;10145;49.152;9.282;2023-02-16T11:00:11;5.20;99.90
19968;DHT22;10145;49.152;9.282;2023-02-16T11:02:44;5.40;99.90
19968;DHT22;10145;49.152;9.282;2023-02-16T11:05:35;5.60;99.90
19968;DHT22;10145;49.152;9.282;2023-02-16T11:08:03;5.70;99.90
19968;DHT22;10145;49.152;9.282;2023-02-16T11:10:48;5.80;99.90
19968;DHT22;10145;49.152;9.282;2023-02-16T11:13:19;6.00;99.90
19968;DHT22;10145;49.152;9.282;2023-02-16T11:15:51;6.10;99.90
19968;DHT22;10145;49.152;9.282;2023-02-16T11:18:31;6.30;99.90
19968;DHT22;10145;49.152;9.282;2023-02-16T11:20:58;6.50;99.90
19968;DHT22;10145;49.152;9.282;2023-02-16T11:33:33;7.40;99.90
19968;DHT22;10145;49.152;9.282;2023-02-16T11:36:00;7.60;99.90
19968;DHT22;10145;49.152;9.282;2023-02-16T11:38:36;7.80;99.90
19968;DHT22;10145;49.152;9.282;2023-02-16T11:41:04;8.00;99.90
19968;DHT22;10145;49.152;9.282;2023-02-16T11:43:34;8.20;99.90
19968;DHT22;10145;49.152;9.282;2023-02-16T11:46:14;8.20;99.90
19968;DHT22;10145;49.152;9.282;2023-02-16T11:48:42;8.30;99.90
19968;DHT22;10145;49.152;9.282;2023-02-16T11:51:09;8.50;99.90
19968;DHT22;10145;49.152;9.282;2023-02-16T11:53:40;8.60;99.90
19968;DHT22;10145;49.152;9.282;2023-02-16T11:58:44;9.20;99.90
19968;DHT22;10145;49.152;9.282;2023-02-16T12:18:00;11.10;99.90
19968;DHT22;10145;49.152;9.282;2023-02-16T12:29:02;12.20;99.90
19968;DHT22;10145;49.152;9.282;2023-02-16T12:34:27;12.20;99.90
19968;DHT22;10145;49.152;9.282;2023-02-16T12:37:19;12.40;99.90
19968;DHT22;10145;49.152;9.282;2023-02-16T12:40:15;12.40;99.90
19968;DHT22;10145;49.152;9.282;2023-02-16T12:45:18;12.10;99.90
19968;DHT22;10145;49.152;9.282;2023-02-16T12:51:32;11.80;99.90
19968;DHT22;10145;49.152;9.282;2023-02-16T12:54:25;11.80;99.90
19968;DHT22;10145;49.152;9.282;2023-02-16T12:57:07;11.80;99.90
19968;DHT22;10145;49.152;9.282;2023-02-16T12:59:48;12.00;99.90
19968;DHT22;10145;49.152;9.282;2023-02-16T13:02:34;12.30;99.90
19968;DHT22;10145;49.152;9.282;2023-02-16T13:05:09;12.30;99.90
19968;DHT22;10145;49.152;9.282;2023-02-16T13:07:38;12.40;99.90
19968;DHT22;10145;49.152;9.282;2023-02-16T13:10:26;12.30;99.90
19968;DHT22;10145;49.152;9.282;2023-02-16T13:12:59;12.40;99.90
19968;DHT22;10145;49.152;9.282;2023-02-16T13:15:40;12.40;99.90
19968;DHT22;10145;49.152;9.282;2023-02-16T13:18:24;12.60;99.90
19968;DHT22;10145;49.152;9.282;2023-02-16T13:20:57;12.90;99.90
19968;DHT22;10145;49.152;9.282;2023-02-16T13:29:13;14.00;99.60
19968;DHT22;10145;49.152;9.282;2023-02-16T13:45:43;13.10;99.90
19968;DHT22;10145;49.152;9.282;2023-02-16T13:48:20;12.90;99.90
19968;DHT22;10145;49.152;9.282;2023-02-16T13:50:57;13.00;99.90
19968;DHT22;10145;49.152;9.282;2023-02-16T13:53:24;13.20;99.70
19968;DHT22;10145;49.152;9.282;2023-02-16T13:56:14;13.40;99.30
19968;DHT22;10145;49.152;9.282;2023-02-16T13:58:41;13.60;98.90
19968;DHT22;10145;49.152;9.282;2023-02-16T14:04:02;13.70;98.90
19968;DHT22;10145;49.152;9.282;2023-02-16T14:06:34;13.80;98.50
19968;DHT22;10145;49.152;9.282;2023-02-16T14:17:14;14.10;98.40
19968;DHT22;10145;49.152;9.282;2023-02-16T14:22:18;14.30;98.00
19968;DHT22;10145;49.152;9.282;2023-02-16T14:24:52;14.40;97.20
19968;DHT22;10145;49.152;9.282;2023-02-16T14:28:00;14.40;96.90
19968;DHT22;10145;49.152;9.282;2023-02-16T14:30:35;14.30;96.90
19968;DHT22;10145;49.152;9.282;2023-02-16T14:38:28;14.50;97.30
19968;DHT22;10145;49.152;9.282;2023-02-16T14:40:59;14.50;97.60
19968;DHT22;10145;49.152;9.282;2023-02-16T14:43:34;14.50;97.90
19968;DHT22;10145;49.152;9.282;2023-02-16T15:03:16;14.40;95.80
19968;DHT22;10145;49.152;9.282;2023-02-16T15:05:49;14.40;95.50
19968;DHT22;10145;49.152;9.282;2023-02-16T15:08:21;14.50;95.60
19968;DHT22;10145;49.152;9.282;2023-02-16T15:10:49;14.30;95.80
19968;DHT22;10145;49.152;9.282;2023-02-16T15:13:29;14.30;95.30
19968;DHT22;10145;49.152;9.282;2023-02-16T15:15:58;14.30;94.90
19968;DHT22;10145;49.152;9.282;2023-02-16T15:18:41;14.10;95.20
19968;DHT22;10145;49.152;9.282;2023-02-16T15:21:21;13.90;94.50
19968;DHT22;10145;49.152;9.282;2023-02-16T15:23:54;13.70;94.30
19968;DHT22;10145;49.152;9.282;2023-02-16T15:26:23;13.60;94.00
19968;DHT22;10145;49.152;9.282;2023-02-16T15:28:55;13.60;94.70
19968;DHT22;10145;49.152;9.282;2023-02-16T15:31:28;13.50;94.80
19968;DHT22;10145;49.152;9.282;2023-02-16T15:34:04;13.50;94.30
19968;DHT22;10145;49.152;9.282;2023-02-16T15:36:43;13.40;94.30
19968;DHT22;10145;49.152;9.282;2023-02-16T15:39:25;13.20;94.50
19968;DHT22;10145;49.152;9.282;2023-02-16T15:41:52;13.00;94.50
19968;DHT22;10145;49.152;9.282;2023-02-16T15:47:08;12.80;95.40
19968;DHT22;10145;49.152;9.282;2023-02-16T15:49:34;12.60;95.50
19968;DHT22;10145;49.152;9.282;2023-02-16T15:52:06;12.50;95.70
19968;DHT22;10145;49.152;9.282;2023-02-16T15:54:34;12.50;96.30
19968;DHT22;10145;49.152;9.282;2023-02-16T15:57:03;12.40;96.20
19968;DHT22;10145;49.152;9.282;2023-02-16T15:59:49;12.30;96.40
19968;DHT22;10145;49.152;9.282;2023-02-16T16:02:16;12.20;96.40
19968;DHT22;10145;49.152;9.282;2023-02-16T16:04:46;12.10;96.80
19968;DHT22;10145;49.152;9.282;2023-02-16T16:07:16;11.90;97.20
19968;DHT22;10145;49.152;9.282;2023-02-16T16:09:43;11.80;97.80
